Time;durP1;ratioP1;P1;durP2;ratioP2;P2;SDS_P1;SDS_P2;PMS_P1;PMS_P2;Temp;Humidity;BMP_temperature;BMP_pressure;BME280_temperature;BME280_humidity;BME280_pressure;Samples;Min_cycle;Max_cycle;Signal;HPM_P1;HPM_P2
2022/09/14 00:01:19;;;;;;;;;;;17.20;99.90;;;;;;5040067;28;20430;-77
2022/09/14 00:03:44;;;;;;;;;;;17.20;99.90;;;;;;5048067;28;19962;-78
2022/09/14 00:06:11;;;;;;;;;;;17.00;99.90;;;;;;5047705;28;20007;-78
2022/09/14 00:08:36;;;;;;;;;;;17.00;99.90;;;;;;5050542;28;20364;-78
2022/09/14 00:11:06;;;;;;;;;;;17.10;99.90;;;;;;5049038;28;19912;-78
2022/09/14 00:13:32;;;;;;;;;;;17.10;99.90;;;;;;5040886;28;20042;-77
2022/09/14 00:16:02;;;;;;;;;;;17.10;99.90;;;;;;5045095;28;19958;-77
2022/09/14 00:18:27;;;;;;;;;;;17.10;99.90;;;;;;5037088;28;19908;-77
2022/09/14 00:20:57;;;;;;;;;;;17.10;99.90;;;;;;5040945;28;19916;-78
2022/09/14 00:23:23;;;;;;;;;;;17.20;99.90;;;;;;5042094;28;20360;-77
2022/09/14 00:25:48;;;;;;;;;;;17.20;99.90;;;;;;5022719;28;19920;-76
2022/09/14 00:28:14;;;;;;;;;;;17.10;99.90;;;;;;5050673;28;19913;-77
2022/09/14 00:30:41;;;;;;;;;;;17.10;99.90;;;;;;5037060;28;19917;-77
2022/09/14 00:33:06;;;;;;;;;;;17.10;99.90;;;;;;5045451;28;20292;-77
2022/09/14 00:35:33;;;;;;;;;;;17.10;99.90;;;;;;5046827;28;19921;-77
2022/09/14 00:37:59;;;;;;;;;;;17.10;99.90;;;;;;5056590;28;19937;-77
2022/09/14 00:40:24;;;;;;;;;;;17.10;99.90;;;;;;5039200;28;19917;-77
2022/09/14 00:42:50;;;;;;;;;;;17.20;99.90;;;;;;5053055;28;19916;-78
2022/09/14 00:45:19;;;;;;;;;;;17.20;99.90;;;;;;5044895;28;19932;-78
2022/09/14 00:47:46;;;;;;;;;;;17.10;99.90;;;;;;5048794;28;19917;-78
2022/09/14 00:50:12;;;;;;;;;;;17.10;99.90;;;;;;5044279;28;20620;-78
2022/09/14 00:52:40;;;;;;;;;;;17.10;99.90;;;;;;5041623;28;19928;-78
2022/09/14 00:55:08;;;;;;;;;;;17.00;99.90;;;;;;5044926;28;19909;-78
2022/09/14 00:57:37;;;;;;;;;;;17.10;99.90;;;;;;5040867;28;19911;-78
2022/09/14 01:00:03;;;;;;;;;;;17.10;99.90;;;;;;5043170;28;19913;-78
2022/09/14 01:02:29;;;;;;;;;;;17.10;99.90;;;;;;5040158;28;19974;-78
2022/09/14 01:04:54;;;;;;;;;;;17.10;99.90;;;;;;5045685;28;19916;-78
2022/09/14 01:07:23;;;;;;;;;;;17.10;99.90;;;;;;5043575;28;20294;-78
2022/09/14 01:09:52;;;;;;;;;;;17.10;99.90;;;;;;5032775;28;19963;-78
2022/09/14 01:12:23;;;;;;;;;;;17.10;99.90;;;;;;5042040;28;20360;-78
2022/09/14 01:14:49;;;;;;;;;;;17.10;99.90;;;;;;5035795;28;19928;-78
2022/09/14 01:17:21;;;;;;;;;;;17.10;99.90;;;;;;5041184;28;19977;-78
2022/09/14 01:20:01;;;;;;;;;;;17.10;99.90;;;;;;5032885;28;19920;-78
2022/09/14 01:22:45;;;;;;;;;;;17.20;99.90;;;;;;5032418;28;19909;-78
2022/09/14 01:25:14;;;;;;;;;;;17.30;99.90;;;;;;5038489;28;19909;-79
2022/09/14 01:27:42;;;;;;;;;;;17.20;99.90;;;;;;5044270;28;19905;-78
2022/09/14 01:30:08;;;;;;;;;;;17.20;99.90;;;;;;5045753;28;19916;-78
2022/09/14 01:32:37;;;;;;;;;;;17.20;99.90;;;;;;5048752;28;20382;-78
2022/09/14 01:35:06;;;;;;;;;;;17.20;99.90;;;;;;5045316;28;19952;-78
2022/09/14 01:37:32;;;;;;;;;;;17.30;99.90;;;;;;5043829;28;19912;-78
2022/09/14 01:40:02;;;;;;;;;;;17.30;99.90;;;;;;5031705;28;20422;-78
2022/09/14 01:42:28;;;;;;;;;;;17.30;99.90;;;;;;5045035;28;19982;-78
2022/09/14 01:44:55;;;;;;;;;;;17.30;99.90;;;;;;5046313;28;20571;-78
2022/09/14 01:47:25;;;;;;;;;;;17.30;99.90;;;;;;5042094;28;19909;-78
2022/09/14 01:50:08;;;;;;;;;;;17.30;99.90;;;;;;5041394;28;19915;-78
2022/09/14 01:52:38;;;;;;;;;;;17.30;99.90;;;;;;5037447;28;19924;-78
2022/09/14 01:55:10;;;;;;;;;;;17.30;99.90;;;;;;5038226;28;19920;-78
2022/09/14 01:57:38;;;;;;;;;;;17.30;99.90;;;;;;5045286;28;19917;-78
2022/09/14 02:00:06;;;;;;;;;;;17.20;99.90;;;;;;5046411;28;20077;-78
2022/09/14 02:02:34;;;;;;;;;;;17.20;99.90;;;;;;5034841;28;19986;-78
2022/09/14 02:05:02;;;;;;;;;;;17.20;99.90;;;;;;5037577;28;20361;-78
2022/09/14 02:07:28;;;;;;;;;;;17.20;99.90;;;;;;5048084;28;19912;-78
2022/09/14 02:09:54;;;;;;;;;;;17.20;99.90;;;;;;5032025;28;19913;-78
2022/09/14 02:12:21;;;;;;;;;;;17.20;99.90;;;;;;5044498;28;19912;-78
2022/09/14 02:14:48;;;;;;;;;;;17.20;99.90;;;;;;5039493;28;19939;-78
2022/09/14 02:17:13;;;;;;;;;;;17.30;99.90;;;;;;5034206;28;19912;-78
2022/09/14 02:19:43;;;;;;;;;;;17.40;99.90;;;;;;5037008;28;19909;-78
2022/09/14 02:22:09;;;;;;;;;;;17.30;99.90;;;;;;5048005;28;19912;-78
2022/09/14 02:24:35;;;;;;;;;;;17.30;99.90;;;;;;5037789;28;19921;-78
2022/09/14 02:27:00;;;;;;;;;;;17.30;99.90;;;;;;5040764;28;19966;-78
2022/09/14 02:29:26;;;;;;;;;;;17.40;99.90;;;;;;5037952;28;19916;-78
2022/09/14 02:32:03;;;;;;;;;;;17.40;99.90;;;;;;5056772;28;19921;-78
2022/09/14 02:34:28;;;;;;;;;;;17.50;99.90;;;;;;5052871;28;20005;-78
2022/09/14 02:37:10;;;;;;;;;;;17.60;99.90;;;;;;5047266;28;20037;-78
2022/09/14 02:39:39;;;;;;;;;;;17.50;99.90;;;;;;5048612;28;20363;-78
2022/09/14 02:42:07;;;;;;;;;;;17.60;99.90;;;;;;5042059;28;19966;-78
2022/09/14 02:44:36;;;;;;;;;;;17.60;99.90;;;;;;5048318;28;19917;-78
2022/09/14 02:47:01;;;;;;;;;;;17.70;99.90;;;;;;5052502;28;19916;-78
2022/09/14 02:49:49;;;;;;;;;;;17.70;99.90;;;;;;5040926;28;19928;-78
2022/09/14 02:52:17;;;;;;;;;;;17.70;99.90;;;;;;5044630;28;19949;-78
2022/09/14 02:54:51;;;;;;;;;;;17.60;99.90;;;;;;5045524;28;19976;-78
2022/09/14 02:57:16;;;;;;;;;;;17.50;99.90;;;;;;5046088;28;19917;-78
2022/09/14 02:59:42;;;;;;;;;;;17.50;99.90;;;;;;5043920;28;19944;-78
2022/09/14 03:02:07;;;;;;;;;;;17.50;99.90;;;;;;5051788;28;19938;-78
2022/09/14 03:04:33;;;;;;;;;;;17.40;99.90;;;;;;5046690;28;19916;-78
2022/09/14 03:06:58;;;;;;;;;;;17.40;99.90;;;;;;5047804;28;19916;-78
2022/09/14 03:09:24;;;;;;;;;;;17.30;99.90;;;;;;5037131;28;19921;-78
2022/09/14 03:11:49;;;;;;;;;;;17.30;99.90;;;;;;5047869;28;19966;-78
2022/09/14 03:14:15;;;;;;;;;;;17.30;99.90;;;;;;5051985;28;20308;-78
2022/09/14 03:16:40;;;;;;;;;;;17.30;99.90;;;;;;5045319;28;19913;-78
2022/09/14 03:19:06;;;;;;;;;;;17.20;99.90;;;;;;5041789;28;20007;-78
2022/09/14 03:21:31;;;;;;;;;;;17.20;99.90;;;;;;5051454;28;19913;-78
2022/09/14 03:23:57;;;;;;;;;;;17.20;99.90;;;;;;5039814;28;19935;-78
2022/09/14 03:26:24;;;;;;;;;;;17.30;99.90;;;;;;5051935;28;20641;-78
2022/09/14 03:28:57;;;;;;;;;;;17.30;99.90;;;;;;5045309;28;20280;-77
2022/09/14 03:31:23;;;;;;;;;;;17.30;99.90;;;;;;5039744;28;20004;-78
2022/09/14 03:33:53;;;;;;;;;;;17.30;99.90;;;;;;5049534;28;20019;-78
2022/09/14 03:36:19;;;;;;;;;;;17.40;99.90;;;;;;5051530;28;20261;-78
2022/09/14 03:38:46;;;;;;;;;;;17.30;99.90;;;;;;5042379;28;19963;-78
2022/09/14 03:41:12;;;;;;;;;;;17.30;99.90;;;;;;5054950;28;19927;-78
2022/09/14 03:43:38;;;;;;;;;;;17.30;99.90;;;;;;5043732;28;19923;-78
2022/09/14 03:46:05;;;;;;;;;;;17.30;99.90;;;;;;5059261;28;19917;-78
2022/09/14 03:48:31;;;;;;;;;;;17.20;99.90;;;;;;5039981;28;19995;-78
2022/09/14 03:50:58;;;;;;;;;;;17.20;99.90;;;;;;5038982;28;20012;-78
2022/09/14 03:53:24;;;;;;;;;;;17.20;99.90;;;;;;5046270;28;19912;-78
2022/09/14 03:55:49;;;;;;;;;;;17.20;99.90;;;;;;5049918;28;19917;-78
2022/09/14 03:58:15;;;;;;;;;;;17.20;99.90;;;;;;5049091;28;19912;-78
2022/09/14 04:00:40;;;;;;;;;;;17.20;99.90;;;;;;5053720;28;19963;-78
2022/09/14 04:03:06;;;;;;;;;;;17.20;99.90;;;;;;5048604;28;20303;-78
2022/09/14 04:05:32;;;;;;;;;;;17.20;99.90;;;;;;5060899;28;19917;-78
2022/09/14 04:07:57;;;;;;;;;;;17.30;99.90;;;;;;5044356;28;19913;-79
2022/09/14 04:10:23;;;;;;;;;;;17.30;99.90;;;;;;5036236;28;20265;-79
2022/09/14 04:12:48;;;;;;;;;;;17.30;99.90;;;;;;5047482;28;20012;-79
2022/09/14 04:15:14;;;;;;;;;;;17.40;99.90;;;;;;5049763;28;19923;-78
2022/09/14 04:17:39;;;;;;;;;;;17.40;99.90;;;;;;5047615;28;19919;-79
2022/09/14 04:20:05;;;;;;;;;;;17.50;99.90;;;;;;5038391;28;20369;-79
2022/09/14 04:22:30;;;;;;;;;;;17.50;99.90;;;;;;5047941;28;20015;-79
2022/09/14 04:24:56;;;;;;;;;;;17.50;99.90;;;;;;5035489;28;19913;-78
2022/09/14 04:27:22;;;;;;;;;;;17.50;99.90;;;;;;5047856;28;19909;-79
2022/09/14 04:29:48;;;;;;;;;;;17.50;99.90;;;;;;5037676;28;19915;-79
2022/09/14 04:32:14;;;;;;;;;;;17.50;99.90;;;;;;5034589;28;20018;-78
2022/09/14 04:34:40;;;;;;;;;;;17.50;99.90;;;;;;5035745;28;19912;-78
2022/09/14 04:37:05;;;;;;;;;;;17.50;99.90;;;;;;5042541;28;19998;-78
2022/09/14 04:39:30;;;;;;;;;;;17.50;99.90;;;;;;5036766;28;19948;-82
2022/09/14 04:41:56;;;;;;;;;;;17.50;99.90;;;;;;5035757;28;19931;-79
2022/09/14 04:44:21;;;;;;;;;;;17.50;99.90;;;;;;5046578;28;19912;-79
2022/09/14 04:46:47;;;;;;;;;;;17.50;99.90;;;;;;5041206;28;19924;-79
2022/09/14 04:49:17;;;;;;;;;;;17.50;99.90;;;;;;5035324;28;19986;-79
2022/09/14 04:51:43;;;;;;;;;;;17.50;99.90;;;;;;5040888;28;20035;-79
2022/09/14 04:54:08;;;;;;;;;;;17.50;99.90;;;;;;5048387;28;20003;-78
2022/09/14 04:56:35;;;;;;;;;;;17.60;99.90;;;;;;5055266;28;19913;-78
2022/09/14 04:59:03;;;;;;;;;;;17.60;99.90;;;;;;5040997;28;19932;-78
2022/09/14 05:01:30;;;;;;;;;;;17.60;99.90;;;;;;5038498;28;19951;-78
2022/09/14 05:03:56;;;;;;;;;;;17.60;99.90;;;;;;5009767;28;19917;-86
2022/09/14 05:06:23;;;;;;;;;;;17.70;99.90;;;;;;5039977;28;19987;-86
2022/09/14 05:08:49;;;;;;;;;;;17.70;99.90;;;;;;5043390;28;19960;-91
2022/09/14 05:11:16;;;;;;;;;;;17.70;99.90;;;;;;5037318;28;19912;-85
2022/09/14 05:13:41;;;;;;;;;;;17.60;99.90;;;;;;5038916;28;19920;-86
2022/09/14 05:16:08;;;;;;;;;;;17.50;99.90;;;;;;5042040;28;19919;-85
2022/09/14 05:18:34;;;;;;;;;;;17.40;99.90;;;;;;5050733;28;19917;-90
2022/09/14 05:21:03;;;;;;;;;;;17.20;99.90;;;;;;5040323;28;19963;-83
2022/09/14 05:23:28;;;;;;;;;;;17.10;99.90;;;;;;5048132;28;20013;-83
2022/09/14 05:25:54;;;;;;;;;;;17.10;99.90;;;;;;5038343;28;19913;-83
2022/09/14 05:28:19;;;;;;;;;;;17.00;99.90;;;;;;5041252;28;19948;-82
2022/09/14 05:30:45;;;;;;;;;;;17.00;99.90;;;;;;5045236;28;19924;-83
2022/09/14 05:33:10;;;;;;;;;;;17.10;99.90;;;;;;5038241;28;19917;-82
2022/09/14 05:35:36;;;;;;;;;;;17.10;99.90;;;;;;5050825;28;19913;-83
2022/09/14 05:38:01;;;;;;;;;;;17.10;99.90;;;;;;5040744;28;19924;-83
2022/09/14 05:40:27;;;;;;;;;;;17.10;99.90;;;;;;5038777;28;20007;-82
2022/09/14 05:42:52;;;;;;;;;;;17.10;99.90;;;;;;5043720;28;20371;-82
2022/09/14 05:45:18;;;;;;;;;;;17.10;99.90;;;;;;5036976;28;19917;-82
2022/09/14 05:47:43;;;;;;;;;;;17.10;99.90;;;;;;5035614;28;20616;-82
2022/09/14 05:50:09;;;;;;;;;;;17.10;99.90;;;;;;5040009;28;20419;-83
2022/09/14 05:52:34;;;;;;;;;;;17.20;99.90;;;;;;5035161;28;19956;-82
2022/09/14 05:55:00;;;;;;;;;;;17.30;99.90;;;;;;5042474;28;19917;-82
2022/09/14 05:57:26;;;;;;;;;;;17.20;99.90;;;;;;5040940;28;19912;-82
2022/09/14 05:59:51;;;;;;;;;;;17.30;99.90;;;;;;5042866;28;20707;-82
2022/09/14 06:02:17;;;;;;;;;;;17.30;99.90;;;;;;5049274;28;20404;-82
2022/09/14 06:04:42;;;;;;;;;;;17.40;99.90;;;;;;5043950;28;19923;-82
2022/09/14 06:07:08;;;;;;;;;;;17.40;99.90;;;;;;5032622;28;20704;-83
2022/09/14 06:09:33;;;;;;;;;;;17.40;99.90;;;;;;5046403;28;19966;-81
2022/09/14 06:11:59;;;;;;;;;;;17.50;99.90;;;;;;5027815;28;19913;-76
2022/09/14 06:14:24;;;;;;;;;;;17.50;99.90;;;;;;5038553;28;20285;-77
2022/09/14 06:16:50;;;;;;;;;;;17.50;99.90;;;;;;5047868;28;19919;-77
2022/09/14 06:19:15;;;;;;;;;;;17.50;99.90;;;;;;5046335;28;19912;-76
2022/09/14 06:21:42;;;;;;;;;;;17.50;99.90;;;;;;5043915;28;19983;-77
2022/09/14 06:24:08;;;;;;;;;;;17.50;99.90;;;;;;5033310;28;20221;-77
2022/09/14 06:26:34;;;;;;;;;;;17.60;99.90;;;;;;5038827;28;19917;-77
2022/09/14 06:28:59;;;;;;;;;;;17.60;99.90;;;;;;5048293;28;19919;-77
2022/09/14 06:31:25;;;;;;;;;;;17.70;99.90;;;;;;5045032;28;19917;-77
2022/09/14 06:33:50;;;;;;;;;;;17.70;99.90;;;;;;5047713;28;19931;-77
2022/09/14 06:36:20;;;;;;;;;;;17.70;99.90;;;;;;5042061;28;19908;-77
2022/09/14 06:38:48;;;;;;;;;;;17.70;99.90;;;;;;5030809;28;19915;-77
2022/09/14 06:41:16;;;;;;;;;;;17.80;99.90;;;;;;5047694;28;20440;-77
2022/09/14 06:43:42;;;;;;;;;;;17.80;99.90;;;;;;5045522;28;19983;-77
2022/09/14 06:46:11;;;;;;;;;;;17.90;99.90;;;;;;5047615;28;19948;-77
2022/09/14 06:48:37;;;;;;;;;;;18.00;99.90;;;;;;5046067;28;19909;-77
2022/09/14 06:51:10;;;;;;;;;;;18.00;99.90;;;;;;5040185;28;19913;-77
2022/09/14 06:53:35;;;;;;;;;;;18.10;99.90;;;;;;5045776;28;20313;-77
2022/09/14 06:56:01;;;;;;;;;;;18.10;99.90;;;;;;5037038;28;19913;-77
2022/09/14 06:58:27;;;;;;;;;;;18.20;99.90;;;;;;5023720;28;19913;-77
2022/09/14 07:00:52;;;;;;;;;;;18.30;99.90;;;;;;5035706;28;19921;-77
2022/09/14 07:03:17;;;;;;;;;;;18.30;99.90;;;;;;5046482;28;19960;-77
2022/09/14 07:05:43;;;;;;;;;;;18.40;99.90;;;;;;5044229;28;19923;-77
2022/09/14 07:08:08;;;;;;;;;;;18.50;99.90;;;;;;5046971;28;19913;-77
2022/09/14 07:10:34;;;;;;;;;;;18.60;99.90;;;;;;5047531;28;20291;-77
2022/09/14 07:13:01;;;;;;;;;;;18.70;99.90;;;;;;5048169;28;19913;-78
2022/09/14 07:15:26;;;;;;;;;;;18.80;99.90;;;;;;5051555;28;20384;-78
2022/09/14 07:17:52;;;;;;;;;;;18.90;99.90;;;;;;5019481;28;19952;-77
2022/09/14 07:20:18;;;;;;;;;;;19.00;99.90;;;;;;5044402;28;19919;-77
2022/09/14 07:22:44;;;;;;;;;;;19.10;99.90;;;;;;5039588;28;19905;-77
2022/09/14 07:25:09;;;;;;;;;;;19.20;99.90;;;;;;5049729;28;19955;-77
2022/09/14 07:27:38;;;;;;;;;;;19.30;99.90;;;;;;5050585;28;19913;-77
2022/09/14 07:30:05;;;;;;;;;;;19.50;99.90;;;;;;5037955;28;20438;-77
2022/09/14 07:32:30;;;;;;;;;;;19.60;99.90;;;;;;5048922;28;19923;-77
2022/09/14 07:34:56;;;;;;;;;;;19.60;99.90;;;;;;5049004;28;19916;-77
2022/09/14 07:37:21;;;;;;;;;;;19.70;99.90;;;;;;5051099;28;19913;-77
2022/09/14 07:39:47;;;;;;;;;;;19.90;99.90;;;;;;5050894;28;19912;-77
2022/09/14 07:42:13;;;;;;;;;;;19.70;99.90;;;;;;5038763;28;19928;-78
2022/09/14 07:44:38;;;;;;;;;;;19.80;99.90;;;;;;5039308;28;20376;-77
2022/09/14 07:47:04;;;;;;;;;;;19.70;99.90;;;;;;5050148;28;19913;-77
2022/09/14 07:49:29;;;;;;;;;;;19.70;99.90;;;;;;5050331;28;19939;-77
2022/09/14 07:51:55;;;;;;;;;;;19.70;99.90;;;;;;5058029;28;20296;-77
2022/09/14 07:54:20;;;;;;;;;;;19.80;99.90;;;;;;5045221;28;20035;-77
2022/09/14 07:56:48;;;;;;;;;;;19.90;99.90;;;;;;5045658;28;19951;-77
2022/09/14 07:59:14;;;;;;;;;;;19.90;99.90;;;;;;5050336;28;19916;-77
2022/09/14 08:01:39;;;;;;;;;;;20.00;99.90;;;;;;5045717;28;19973;-76
2022/09/14 08:04:05;;;;;;;;;;;19.90;99.90;;;;;;5045149;28;19917;-77
2022/09/14 08:06:32;;;;;;;;;;;20.10;99.90;;;;;;5045301;28;20411;-77
2022/09/14 08:08:57;;;;;;;;;;;20.40;99.90;;;;;;5047798;28;20003;-77
2022/09/14 08:11:27;;;;;;;;;;;20.50;99.90;;;;;;5049695;28;20800;-77
2022/09/14 08:13:54;;;;;;;;;;;20.70;99.90;;;;;;5050566;28;20447;-77
2022/09/14 08:16:21;;;;;;;;;;;20.90;99.90;;;;;;5043520;28;19909;-77
2022/09/14 08:18:47;;;;;;;;;;;20.90;99.90;;;;;;5046818;28;19909;-77
2022/09/14 08:21:14;;;;;;;;;;;20.90;99.90;;;;;;5047418;28;19967;-77
2022/09/14 08:23:40;;;;;;;;;;;20.90;99.90;;;;;;5050794;28;20007;-77
2022/09/14 08:26:07;;;;;;;;;;;21.00;99.90;;;;;;5040197;28;20003;-77
2022/09/14 08:28:33;;;;;;;;;;;21.30;99.90;;;;;;5063169;28;19917;-77
2022/09/14 08:31:02;;;;;;;;;;;21.20;99.90;;;;;;5049734;28;20003;-77
2022/09/14 08:33:29;;;;;;;;;;;21.30;99.90;;;;;;5041692;28;20257;-77
2022/09/14 08:35:55;;;;;;;;;;;21.60;99.90;;;;;;5042543;28;20396;-77
2022/09/14 08:38:20;;;;;;;;;;;21.50;99.90;;;;;;5046906;28;19966;-77
2022/09/14 08:40:46;;;;;;;;;;;21.70;99.90;;;;;;5039998;28;19924;-77
2022/09/14 08:43:13;;;;;;;;;;;21.60;99.90;;;;;;5050462;28;20291;-77
2022/09/14 08:45:42;;;;;;;;;;;21.70;99.90;;;;;;5043372;28;20015;-77
2022/09/14 08:48:25;;;;;;;;;;;21.70;99.90;;;;;;5048844;28;20573;-77
2022/09/14 08:50:52;;;;;;;;;;;21.80;99.90;;;;;;5048438;28;19909;-77
2022/09/14 08:53:20;;;;;;;;;;;21.90;99.90;;;;;;5050149;28;20416;-77
2022/09/14 08:55:52;;;;;;;;;;;22.20;99.90;;;;;;5056521;28;19982;-77
2022/09/14 08:58:30;;;;;;;;;;;22.50;99.90;;;;;;5044572;28;19913;-77
2022/09/14 09:01:00;;;;;;;;;;;22.80;99.90;;;;;;5039291;28;20374;-77
2022/09/14 09:03:39;;;;;;;;;;;22.70;99.90;;;;;;5045825;28;19912;-77
2022/09/14 09:06:05;;;;;;;;;;;22.80;99.90;;;;;;5055822;28;19912;-78
2022/09/14 09:08:36;;;;;;;;;;;22.90;99.90;;;;;;5037095;28;20280;-77
2022/09/14 09:11:04;;;;;;;;;;;22.70;99.90;;;;;;5034083;28;19910;-77
2022/09/14 09:13:31;;;;;;;;;;;22.70;99.90;;;;;;5044680;28;19912;-77
2022/09/14 09:15:59;;;;;;;;;;;22.80;99.90;;;;;;5035964;28;19932;-77
2022/09/14 09:18:40;;;;;;;;;;;22.70;99.90;;;;;;5047460;28;19917;-77
2022/09/14 09:21:08;;;;;;;;;;;22.90;99.90;;;;;;5044635;28;19916;-77
2022/09/14 09:23:34;;;;;;;;;;;23.10;99.20;;;;;;5038340;28;20784;-81
2022/09/14 09:26:05;;;;;;;;;;;23.40;99.70;;;;;;5045649;28;19908;-78
2022/09/14 09:28:30;;;;;;;;;;;23.20;99.60;;;;;;5034670;28;20312;-78
2022/09/14 09:30:58;;;;;;;;;;;23.00;99.90;;;;;;5049814;28;19923;-78
2022/09/14 09:33:25;;;;;;;;;;;22.90;99.70;;;;;;5039806;28;19921;-78
2022/09/14 09:35:51;;;;;;;;;;;22.80;99.90;;;;;;5039890;28;20415;-78
2022/09/14 09:38:18;;;;;;;;;;;22.80;99.90;;;;;;5044842;28;20448;-77
2022/09/14 09:40:49;;;;;;;;;;;23.00;99.90;;;;;;5037374;28;20440;-78
2022/09/14 09:43:17;;;;;;;;;;;23.10;99.90;;;;;;5027805;28;19921;-78
2022/09/14 09:45:47;;;;;;;;;;;23.00;99.90;;;;;;5037817;28;19913;-78
2022/09/14 09:48:13;;;;;;;;;;;22.90;99.20;;;;;;5034787;28;19916;-78
2022/09/14 09:50:49;;;;;;;;;;;23.00;99.10;;;;;;5033805;28;19996;-78
2022/09/14 09:53:16;;;;;;;;;;;23.10;99.90;;;;;;5037364;28;19916;-78
2022/09/14 09:55:45;;;;;;;;;;;23.40;99.50;;;;;;5029932;28;20757;-78
2022/09/14 09:58:28;;;;;;;;;;;23.70;98.30;;;;;;5032872;28;19963;-78
2022/09/14 10:00:55;;;;;;;;;;;24.00;95.20;;;;;;5028793;28;19967;-78
2022/09/14 10:03:29;;;;;;;;;;;23.80;95.60;;;;;;5032462;28;19909;-78
2022/09/14 10:05:59;;;;;;;;;;;24.00;95.90;;;;;;5034406;28;19919;-78
2022/09/14 10:08:25;;;;;;;;;;;24.00;95.10;;;;;;5036886;28;20375;-78
2022/09/14 10:10:50;;;;;;;;;;;24.30;95.40;;;;;;5027559;28;19913;-78
2022/09/14 10:13:30;;;;;;;;;;;24.00;92.40;;;;;;5037166;28;20360;-78
2022/09/14 10:16:06;;;;;;;;;;;24.00;94.00;;;;;;5031209;28;19913;-78
2022/09/14 10:18:31;;;;;;;;;;;23.90;92.60;;;;;;5034910;28;19909;-78
2022/09/14 10:20:57;;;;;;;;;;;23.90;96.50;;;;;;5036436;28;19909;-78
2022/09/14 10:23:24;;;;;;;;;;;24.30;93.00;;;;;;5039395;28;19917;-79
2022/09/14 10:26:09;;;;;;;;;;;24.70;91.30;;;;;;5038925;28;19919;-77
2022/09/14 10:28:35;;;;;;;;;;;25.00;92.50;;;;;;5034587;28;19927;-78
2022/09/14 10:31:07;;;;;;;;;;;25.00;91.50;;;;;;5041357;28;20103;-79
2022/09/14 10:33:34;;;;;;;;;;;25.00;88.20;;;;;;5043505;28;20773;-78
2022/09/14 10:36:05;;;;;;;;;;;25.30;91.30;;;;;;5038495;28;19917;-78
2022/09/14 10:38:31;;;;;;;;;;;25.60;89.60;;;;;;5038162;28;19917;-78
2022/09/14 10:41:07;;;;;;;;;;;25.60;85.70;;;;;;5036395;28;19921;-79
2022/09/14 10:43:55;;;;;;;;;;;25.50;89.20;;;;;;5035950;28;19919;-78
2022/09/14 10:46:28;;;;;;;;;;;25.40;87.40;;;;;;5040232;28;20392;-77
2022/09/14 10:49:06;;;;;;;;;;;25.30;86.60;;;;;;5046436;28;19920;-78
2022/09/14 10:51:37;;;;;;;;;;;25.10;85.80;;;;;;5047308;28;19908;-78
2022/09/14 10:54:09;;;;;;;;;;;25.00;91.80;;;;;;5048405;28;19986;-78
2022/09/14 10:56:54;;;;;;;;;;;25.00;85.30;;;;;;5042862;28;19912;-80
2022/09/14 10:59:46;;;;;;;;;;;24.90;86.40;;;;;;5046943;28;19909;-81
2022/09/14 11:02:31;;;;;;;;;;;24.70;93.00;;;;;;5035074;28;19913;-82
2022/09/14 11:05:15;;;;;;;;;;;24.50;85.90;;;;;;5041492;28;20597;-81
2022/09/14 11:07:40;;;;;;;;;;;24.50;83.40;;;;;;5040482;28;19978;-81
2022/09/14 11:10:06;;;;;;;;;;;24.40;84.70;;;;;;5050086;28;19913;-80
2022/09/14 11:12:34;;;;;;;;;;;24.20;85.20;;;;;;5039239;28;19951;-80
2022/09/14 11:15:09;;;;;;;;;;;24.40;85.30;;;;;;5047102;28;19995;-78
2022/09/14 11:17:39;;;;;;;;;;;24.50;83.70;;;;;;5047545;28;19990;-78
2022/09/14 11:20:17;;;;;;;;;;;24.40;85.10;;;;;;5042502;28;20368;-78
2022/09/14 11:22:42;;;;;;;;;;;24.60;86.00;;;;;;5039505;28;19909;-78
2022/09/14 11:25:17;;;;;;;;;;;24.30;85.60;;;;;;5043083;28;19975;-78
2022/09/14 11:27:46;;;;;;;;;;;24.30;88.90;;;;;;5040978;28;20291;-78
2022/09/14 11:30:16;;;;;;;;;;;24.20;88.00;;;;;;5050542;28;20258;-78
2022/09/14 11:32:45;;;;;;;;;;;24.20;88.10;;;;;;5039691;28;19909;-77
2022/09/14 11:35:10;;;;;;;;;;;24.20;87.30;;;;;;5045514;28;20280;-78
2022/09/14 11:37:39;;;;;;;;;;;24.20;89.10;;;;;;5046103;28;19963;-78
2022/09/14 11:40:09;;;;;;;;;;;24.40;88.50;;;;;;5044693;28;20400;-78
2022/09/14 11:42:38;;;;;;;;;;;24.60;87.30;;;;;;5047304;28;20291;-78
2022/09/14 11:45:06;;;;;;;;;;;24.40;86.20;;;;;;5050168;28;19935;-78
2022/09/14 11:47:37;;;;;;;;;;;24.20;84.90;;;;;;5050595;28;19912;-78
2022/09/14 11:50:14;;;;;;;;;;;24.10;88.40;;;;;;5045234;28;19915;-79
2022/09/14 11:52:39;;;;;;;;;;;23.90;89.70;;;;;;5036704;28;19913;-78
2022/09/14 11:55:08;;;;;;;;;;;24.30;88.70;;;;;;5051424;28;19916;-79
2022/09/14 11:57:34;;;;;;;;;;;25.30;83.80;;;;;;5042470;28;20405;-79
2022/09/14 12:00:20;;;;;;;;;;;25.90;79.00;;;;;;5051058;28;20011;-79
2022/09/14 12:02:57;;;;;;;;;;;25.80;81.20;;;;;;5009200;28;19917;-79
2022/09/14 12:05:25;;;;;;;;;;;26.20;78.50;;;;;;5031719;28;20396;-79
2022/09/14 12:07:54;;;;;;;;;;;26.40;78.30;;;;;;5045257;28;19916;-78
2022/09/14 12:10:20;;;;;;;;;;;26.10;75.40;;;;;;5043214;28;20023;-79
2022/09/14 12:12:55;;;;;;;;;;;25.80;77.70;;;;;;5063271;28;20304;-79
2022/09/14 12:15:20;;;;;;;;;;;26.00;78.40;;;;;;5046788;28;19924;-78
2022/09/14 12:17:46;;;;;;;;;;;25.30;79.00;;;;;;5049388;28;19917;-78
2022/09/14 12:20:30;;;;;;;;;;;25.00;81.20;;;;;;5049188;28;20407;-82
2022/09/14 12:23:22;;;;;;;;;;;24.70;83.20;;;;;;5029403;28;19913;-78
2022/09/14 12:26:11;;;;;;;;;;;24.50;88.20;;;;;;5057433;28;19954;-78
2022/09/14 12:28:39;;;;;;;;;;;24.60;85.20;;;;;;5050512;28;20335;-77
2022/09/14 12:31:04;;;;;;;;;;;24.50;90.10;;;;;;5049523;28;19928;-77
2022/09/14 12:33:30;;;;;;;;;;;24.80;82.40;;;;;;5042093;28;19935;-77
2022/09/14 12:35:56;;;;;;;;;;;24.80;82.60;;;;;;5043033;28;19908;-77
2022/09/14 12:38:30;;;;;;;;;;;25.10;81.00;;;;;;5047233;28;19920;-78
2022/09/14 12:40:59;;;;;;;;;;;25.50;79.60;;;;;;5050424;28;19920;-78
2022/09/14 12:43:31;;;;;;;;;;;26.20;78.40;;;;;;5045948;28;19913;-78
2022/09/14 12:46:09;;;;;;;;;;;26.70;76.20;;;;;;5036048;28;19916;-78
2022/09/14 12:48:46;;;;;;;;;;;27.00;76.30;;;;;;5044397;28;19916;-78
2022/09/14 12:51:30;;;;;;;;;;;26.80;74.00;;;;;;5050758;28;19913;-78
2022/09/14 12:54:07;;;;;;;;;;;26.50;74.50;;;;;;5044197;28;19921;-77
2022/09/14 12:56:42;;;;;;;;;;;26.30;75.90;;;;;;5050525;28;19932;-77
2022/09/14 12:59:08;;;;;;;;;;;26.30;77.00;;;;;;5038802;28;19913;-78
2022/09/14 13:01:47;;;;;;;;;;;27.20;74.10;;;;;;5046688;28;19916;-77
2022/09/14 13:04:15;;;;;;;;;;;26.40;73.80;;;;;;5046101;28;20381;-77
2022/09/14 13:06:45;;;;;;;;;;;26.20;72.20;;;;;;5044136;28;19915;-78
2022/09/14 13:09:30;;;;;;;;;;;25.70;75.90;;;;;;5046853;28;20415;-77
2022/09/14 13:12:01;;;;;;;;;;;24.80;81.20;;;;;;5044746;28;19919;-78
2022/09/14 13:14:29;;;;;;;;;;;24.30;82.80;;;;;;5029171;28;19960;-78
2022/09/14 13:16:56;;;;;;;;;;;24.20;88.00;;;;;;5038202;28;19936;-78
2022/09/14 13:19:26;;;;;;;;;;;24.00;89.10;;;;;;5041446;28;19920;-77
2022/09/14 13:21:54;;;;;;;;;;;24.00;90.70;;;;;;5050022;28;19920;-78
2022/09/14 13:24:22;;;;;;;;;;;23.70;90.50;;;;;;5041932;28;20359;-77
2022/09/14 13:26:48;;;;;;;;;;;23.70;92.40;;;;;;5041597;28;19917;-77
2022/09/14 13:29:14;;;;;;;;;;;23.50;93.30;;;;;;5049791;28;19923;-78
2022/09/14 13:31:42;;;;;;;;;;;23.10;95.10;;;;;;5038936;28;19913;-77
2022/09/14 13:34:16;;;;;;;;;;;22.80;96.10;;;;;;5027389;28;19928;-77
2022/09/14 13:36:42;;;;;;;;;;;22.30;98.70;;;;;;5028266;28;20364;-77
2022/09/14 13:39:27;;;;;;;;;;;22.10;98.20;;;;;;5025436;28;19968;-77
2022/09/14 13:41:53;;;;;;;;;;;21.70;98.60;;;;;;5040942;28;20059;-77
2022/09/14 13:44:21;;;;;;;;;;;21.00;99.90;;;;;;5025458;28;19925;-77
2022/09/14 13:46:47;;;;;;;;;;;20.50;99.90;;;;;;5025467;28;20399;-77
2022/09/14 13:49:13;;;;;;;;;;;20.30;99.90;;;;;;5022926;28;20145;-77
2022/09/14 13:51:38;;;;;;;;;;;20.30;99.90;;;;;;5028146;28;20300;-78
2022/09/14 13:54:18;;;;;;;;;;;20.10;99.90;;;;;;5027153;28;19917;-77
2022/09/14 13:56:44;;;;;;;;;;;20.00;99.90;;;;;;5039348;28;19917;-77
2022/09/14 13:59:15;;;;;;;;;;;19.90;99.90;;;;;;5040365;28;19971;-77
2022/09/14 14:01:42;;;;;;;;;;;19.80;99.90;;;;;;5039505;28;19913;-77
2022/09/14 14:04:37;;;;;;;;;;;20.00;99.90;;;;;;5042824;28;19920;-78
2022/09/14 14:07:21;;;;;;;;;;;20.20;99.90;;;;;;5035681;28;20556;-77
2022/09/14 14:09:49;;;;;;;;;;;20.30;99.90;;;;;;5044423;28;20368;-79
2022/09/14 14:12:27;;;;;;;;;;;20.40;99.90;;;;;;5046154;28;19966;-79
2022/09/14 14:15:16;;;;;;;;;;;20.40;99.90;;;;;;5032073;28;19939;-78
2022/09/14 14:17:41;;;;;;;;;;;20.40;99.90;;;;;;5017665;28;20000;-78
2022/09/14 14:20:25;;;;;;;;;;;20.30;99.90;;;;;;5057814;28;19996;-78
2022/09/14 14:23:02;;;;;;;;;;;20.00;99.90;;;;;;5048907;28;19989;-78
2022/09/14 14:25:42;;;;;;;;;;;20.00;99.90;;;;;;5043092;28;20384;-79